createdAt,value
2023-05-11T00:05:51.193Z,97059.25
2023-05-11T00:15:57.897Z,97076.28
2023-05-11T00:26:04.552Z,96819.25
2023-05-11T00:36:11.066Z,96806.19
2023-05-11T00:46:17.583Z,96813.81
2023-05-11T00:56:24.545Z,96960.56
2023-05-11T01:06:53.314Z,96853.59
2023-05-11T01:17:05.368Z,96902.62
2023-05-11T01:27:44.128Z,96905.56
2023-05-11T01:37:53.142Z,96865.34
2023-05-11T01:48:04.555Z,96846.16
2023-05-11T01:58:12.146Z,96814.75
2023-05-11T02:08:18.822Z,96816.06
2023-05-11T02:18:25.735Z,96831.94
2023-05-11T02:28:32.927Z,96815.84
2023-05-11T02:38:40.859Z,96772.97
2023-05-11T02:48:50.831Z,96718.28
2023-05-11T02:58:57.531Z,96727.91
2023-05-11T03:09:04.063Z,96709.47
2023-05-11T03:19:11.145Z,96700.03
2023-05-11T03:29:18.612Z,96711.38
2023-05-11T03:39:25.422Z,96707.00
2023-05-11T03:49:32.135Z,96667.81
2023-05-11T03:59:40.963Z,96683.47
2023-05-11T04:09:47.540Z,96714.91
2023-05-11T04:19:53.999Z,96727.28
2023-05-11T04:30:00.489Z,96709.22
2023-05-11T04:40:05.886Z,96690.53
2023-05-11T04:50:12.368Z,96764.25
2023-05-11T05:00:19.477Z,96860.28
2023-05-11T05:10:26.819Z,96933.31
2023-05-11T05:20:33.303Z,96955.16
2023-05-11T05:30:39.843Z,97024.59
2023-05-11T05:40:46.391Z,96886.03
2023-05-11T05:50:52.973Z,96722.84
2023-05-11T06:00:59.602Z,97291.81
2023-05-11T06:11:06.107Z,97192.72
2023-05-11T06:21:12.641Z,97192.34
2023-05-11T06:31:20.140Z,97419.00
2023-05-11T06:41:27.387Z,97596.41
2023-05-11T06:51:33.872Z,97743.59
2023-05-11T07:01:40.724Z,97934.81
2023-05-11T07:11:47.849Z,97997.69
2023-05-11T07:21:54.402Z,98095.91
2023-05-11T07:32:00.969Z,98231.19
2023-05-11T07:42:07.543Z,98317.50
2023-05-11T07:52:14.019Z,98336.91
2023-05-11T08:02:20.613Z,98396.25
2023-05-11T08:12:27.131Z,98377.28
2023-05-11T08:22:33.926Z,98357.25
2023-05-11T08:32:50.505Z,98361.53
2023-05-11T08:43:06.879Z,98347.28
2023-05-11T08:53:14.010Z,98341.41
2023-05-11T09:03:21.277Z,98362.19
2023-05-11T09:13:28.324Z,98365.38
2023-05-11T09:23:34.869Z,98361.28
2023-05-11T09:33:41.364Z,98343.62
2023-05-11T09:43:51.553Z,98312.22
2023-05-11T09:53:58.764Z,98343.19
2023-05-11T10:04:22.052Z,98356.88
2023-05-11T10:14:30.698Z,98349.06
2023-05-11T10:24:37.305Z,98346.34
2023-05-11T10:34:44.793Z,98333.91
2023-05-11T10:45:06.516Z,98295.31
2023-05-11T10:55:30.551Z,98266.16
2023-05-11T11:05:39.444Z,98286.03
2023-05-11T11:15:55.365Z,98264.50
2023-05-11T11:26:02.226Z,98266.72
2023-05-11T11:36:08.841Z,98248.44
2023-05-11T11:46:28.372Z,98272.16
2023-05-11T11:56:34.952Z,98261.59
2023-05-11T12:06:42.462Z,98268.69
2023-05-11T12:17:05.413Z,98224.28
2023-05-11T12:27:12.000Z,98265.63
2023-05-11T12:37:18.699Z,98265.34
2023-05-11T12:47:25.342Z,98226.25
2023-05-11T12:57:35.200Z,98219.50
2023-05-11T13:07:41.889Z,98202.94
2023-05-11T13:17:48.760Z,98218.84
2023-05-11T13:27:57.210Z,98215.28
2023-05-11T13:38:03.744Z,98193.44
2023-05-11T13:48:10.291Z,98201.38
2023-05-11T13:58:16.930Z,98204.19
2023-05-11T14:08:23.626Z,98187.53
2023-05-11T14:18:30.399Z,98176.94
2023-05-11T14:28:37.073Z,98191.12
2023-05-11T14:38:44.180Z,98173.66
2023-05-11T14:48:50.651Z,98193.91
2023-05-11T14:58:57.544Z,98176.44
2023-05-11T15:09:04.084Z,98177.78
2023-05-11T15:19:10.830Z,98184.47
2023-05-11T15:29:18.102Z,98174.34
2023-05-11T15:39:24.604Z,98181.06
2023-05-11T15:49:31.897Z,98185.06
2023-05-11T15:59:39.376Z,98202.59
2023-05-11T16:09:46.074Z,98205.53
2023-05-11T16:19:52.645Z,98209.56
2023-05-11T16:30:01.045Z,98219.00
2023-05-11T16:40:10.878Z,98228.47
2023-05-11T16:50:19.236Z,98227.53
2023-05-11T17:00:26.432Z,98244.53
2023-05-11T17:10:33.125Z,98243.31
2023-05-11T17:20:39.656Z,98259.41
2023-05-11T17:30:49.139Z,98264.25
2023-05-11T17:40:55.966Z,98282.19
2023-05-11T17:51:02.645Z,98295.25
2023-05-11T18:01:10.387Z,98296.38
2023-05-11T18:11:16.924Z,98319.00
2023-05-11T18:21:23.419Z,98328.56
2023-05-11T18:31:30.902Z,98357.94
2023-05-11T18:41:37.495Z,98359.31
2023-05-11T18:51:44.093Z,98362.97
2023-05-11T19:01:50.927Z,98382.06
2023-05-11T19:11:57.538Z,98387.47
2023-05-11T19:22:04.032Z,98404.84
2023-05-11T19:41:30.492Z,98404.47
2023-05-11T19:51:35.945Z,98404.47
2023-05-11T20:01:42.750Z,98414.91
2023-05-11T20:11:49.318Z,98422.69
2023-05-11T20:21:55.849Z,98428.34
2023-05-11T20:32:02.361Z,98431.75
2023-05-11T20:42:18.536Z,98425.22
2023-05-11T20:52:26.996Z,98410.03
2023-05-11T21:02:33.552Z,98405.34
2023-05-11T21:12:40.397Z,98383.88
2023-05-11T21:22:46.962Z,98360.38
2023-05-11T21:32:53.881Z,98361.22
2023-05-11T21:43:00.499Z,98353.50
2023-05-11T21:53:07.043Z,98347.63
2023-05-11T22:03:14.023Z,98337.25
2023-05-11T22:13:20.608Z,98320.47
2023-05-11T22:23:27.339Z,98307.91
2023-05-11T22:33:33.827Z,98304.75
2023-05-11T22:43:40.357Z,98302.78
2023-05-11T22:53:47.468Z,98285.09
2023-05-11T23:03:54.042Z,98286.19
2023-05-11T23:14:00.904Z,98270.16
2023-05-11T23:24:08.320Z,98251.81
2023-05-11T23:34:13.908Z,98226.97
2023-05-11T23:44:20.771Z,98189.94
2023-05-11T23:54:27.206Z,98134.81
